Latest Weather Observations for Parawa West

IDS60801

Issued at 3:01 pm CDT Monday 27 March 2017 (issued every 30 minutes, with the page automatically refreshed every 10 minutes)

About weather observations | Map of weather stations | Latest weather observations for SA | Other Formats
Station Details ID: 023875 Name: SECOND VALLEY FOREST AWS Lat: -35.57 Lon: 138.29 Height: 341.0 m
Data from the previous 72 hours. | See also: Recent months at Parawa West
Date/Time
CDT
Temp
°C
App
Temp
°C
Dew
Point
°C
Rel
Hum
%
Delta-T
°C
Wind Press
QNH
hPa
Press
MSL
hPa
Rain since
9am
mm
Dir  Spd
km/h
Gust
km/h
Spd
kts
Gust
kts
27/03:00pm 19.2 15.4 12.5 65 3.8 NW 24 37 13 20 1014.3 1013.4 0.2
27/02:30pm 18.9 14.4 11.5 62 4.1 WNW 26 37 14 20 1014.4 1013.5 0.2
27/02:00pm 19.0 15.3 11.6 62 4.1 WNW 22 35 12 19 1014.5 1013.6 0.2
27/01:30pm 19.4 15.9 10.9 58 4.7 WNW 20 32 11 17 1014.6 1013.7 0.2
27/01:00pm 18.4 14.5 10.8 61 4.2 W 22 35 12 19 1014.6 1013.7 0.2
27/12:30pm 18.7 15.9 11.3 62 4.1 W 17 28 9 15 1014.9 1014.1 0.2
27/12:00pm 17.9 13.2 10.8 63 3.9 W 26 37 14 20 1014.9 1014.1 0.2
27/11:30am 17.1 12.6 11.4 69 3.1 W 26 44 14 24 1014.9 1014.1 0.2
27/11:00am 16.4 13.0 12.4 77 2.2 W 22 32 12 17 1014.4 1013.5 0.2
27/10:30am 15.6 15.0 13.6 88 1.1 WNW 9 17 5 9 1013.7 1012.9 0.2
27/10:00am 15.0 13.7 12.5 85 1.4 W 11 17 6 9 1014.2 1013.3 0.2
27/09:30am 15.7 12.1 11.9 78 2.1 W 22 33 12 18 1013.8 1013.0 0.0
27/09:00am 16.9 13.8 11.6 71 2.9 W 19 33 10 18 1012.9 1012.1 0.0
27/08:30am 17.2 14.2 12.5 74 2.6 W 20 33 11 18 1011.9 1011.0 0.0
27/08:00am 17.5 16.3 15.0 85 1.5 WNW 15 24 8 13 1011.2 1010.3 0.0
27/07:30am 17.6 15.7 15.2 86 1.4 WNW 19 28 10 15 1010.4 1009.6 0.0
27/07:00am 18.0 16.5 15.3 84 1.6 WNW 17 26 9 14 1009.4 1008.5 0.0
27/06:30am 17.9 17.6 16.4 91 0.9 NW 13 20 7 11 1009.4 1008.5 0.0
27/06:00am 18.0 16.5 16.3 90 1.0 W 19 32 10 17 1008.8 1007.9 0.0
27/05:30am 18.4 17.8 16.6 89 1.1 W 15 28 8 15 1008.1 1007.2 0.0
27/05:00am 18.6 18.1 16.9 90 1.0 WSW 15 28 8 15 1007.2 1006.3 0.0
27/04:30am 19.1 17.7 16.9 87 1.4 SW 20 35 11 19 1006.2 1005.3 0.0
27/04:00am 21.3 20.2 16.3 73 3.1 WSW 17 30 9 16 1005.8 1004.9 0.0
27/03:30am 23.6 22.2 15.6 61 4.9 W 17 26 9 14 1005.0 1004.1 0.0
27/03:00am 23.1 21.3 16.9 68 3.9 NW 22 32 12 17 1005.0 1004.1 0.0
27/02:44am 24.8 21.4 15.7 57 5.6 NW 28 43 15 23 1004.8 1004.0 0.0
27/02:30am 29.8 27.5 11.8 33 10.7 NNW 15 41 8 22 1004.1 1003.2 0.0
27/02:00am 29.8 28.4 10.9 31 11.0 NNW 9 24 5 13 1003.5 1002.6 0.0
27/01:30am 29.7 29.1 11.7 33 10.6 N 6 13 3 7 1003.8 1002.9 0.0
27/01:00am 29.8 27.9 11.8 33 10.6 NE 13 28 7 15 1004.1 1003.2 0.0
27/12:30am 29.4 27.7 12.3 34 10.2 NE 13 24 7 13 1004.6 1003.7 0.0
27/12:00am 27.7 26.9 12.9 40 8.8 NE 9 15 5 8 1005.4 1004.5 0.0
 
Date/Time
CDT
Temp
°C
App
Temp
°C
Dew
Point
°C
Rel
Hum
%
Delta-T
°C
Wind Press
QNH
hPa
Press
MSL
hPa
Rain since
9am
mm
Dir  Spd
km/h
Gust
km/h
Spd
kts
Gust
kts
26/11:30pm 27.6 26.0 12.8 40 8.8 NE 13 19 7 10 1006.0 1005.1 0.0
26/11:00pm 27.9 27.2 13.1 40 8.8 NE 9 19 5 10 1006.5 1005.6 0.0
26/10:30pm 26.3 26.7 13.8 46 7.5 N 4 11 2 6 1007.0 1006.1 0.0
26/10:00pm 26.0 26.2 14.1 47 7.2 N 6 11 3 6 1007.3 1006.5 0.0
26/09:30pm 26.4 26.1 14.5 48 7.2 NE 9 17 5 9 1007.6 1006.8 0.0
26/09:00pm 25.4 25.7 15.1 53 6.3 NE 7 11 4 6 1007.9 1007.1 0.0
26/08:30pm 25.2 25.8 15.8 56 5.8 NE 7 17 4 9 1008.1 1007.2 0.0
26/08:00pm 25.4 25.3 16.0 56 5.8 NE 11 17 6 9 1008.1 1007.2 0.0
26/07:30pm 26.2 25.4 16.2 54 6.2 NE 15 22 8 12 1007.9 1007.1 0.0
26/07:00pm 26.4 25.8 16.6 55 6.1 NE 15 24 8 13 1008.2 1007.3 0.0
26/06:30pm 26.5 26.0 17.0 56 6.0 NE 15 22 8 12 1008.2 1007.3 0.0
26/06:00pm 26.5 25.9 17.6 58 5.7 NE 17 26 9 14 1008.4 1007.5 0.0
26/05:30pm 26.7 25.5 17.5 57 5.9 NE 20 33 11 18 1008.1 1007.2 0.0
26/05:00pm 27.5 27.0 16.8 52 6.8 NE 15 22 8 12 1008.8 1007.9 0.0
26/04:30pm 27.8 27.6 15.8 48 7.5 ENE 11 17 6 9 1009.3 1008.4 0.0
26/04:00pm 29.2 28.5 15.3 42 8.6 ENE 13 19 7 10 1009.9 1009.1 0.0
26/03:30pm 28.1 28.6 15.1 45 8.0 NNE 6 11 3 6 1010.5 1009.7 0.0
26/03:00pm 27.7 28.7 15.4 47 7.6 N 4 7 2 4 1010.9 1010.1 0.0
26/02:30pm 28.1 28.1 13.6 41 8.7 NNW 6 11 3 6 1011.4 1010.5 0.0
26/02:00pm 26.6 27.1 15.0 49 7.1 NW 6 9 3 5 1012.2 1011.3 0.0
26/01:30pm 25.8 26.2 15.2 52 6.5 ENE 7 13 4 7 1012.0 1011.1 0.0
26/01:00pm 24.9 25.4 15.5 56 5.8 NW 7 11 4 6 1012.9 1012.1 0.0
26/12:30pm 25.7 25.8 15.4 53 6.3 NNW 9 13 5 7 1013.1 1012.3 0.0
26/12:00pm 25.4 26.7 17.1 60 5.2 NW 6 9 3 5 1013.2 1012.4 0.0
26/11:30am 24.0 26.2 18.4 71 3.6 NNW 4 6 2 3 1013.6 1012.8 0.0
26/11:00am 21.8 23.7 17.6 77 2.6 NNE 4 7 2 4 1013.7 1012.9 0.0
26/10:30am 20.0 21.3 17.2 84 1.7 ENE 6 6 3 3 1013.9 1013.1 0.0
26/10:00am 19.3 20.3 16.9 86 1.5 ENE 7 9 4 5 1014.0 1013.2 0.0
26/09:30am 18.3 19.3 16.8 91 0.9 ENE 7 9 4 5 1014.3 1013.4 0.0
26/09:00am 17.3 18.0 16.2 93 0.7 ESE 7 11 4 6 1013.9 1013.1 0.0
26/08:30am 17.2 18.1 16.2 94 0.6 ENE 6 7 3 4 1013.9 1013.1 0.0
26/08:00am 16.8 18.0 16.0 95 0.5 NNE 4 6 2 3 1013.8 1013.0 0.0
26/07:30am 16.6 17.8 15.8 95 0.5 NE 4 11 2 6 1013.2 1012.4 0.0
26/07:00am 16.6 17.3 15.6 94 0.6 NE 6 9 3 5 1012.9 1012.1 0.0
26/06:30am 17.2 17.6 16.2 94 0.6 NE 9 13 5 7 1012.7 1011.9 0.0
26/06:00am 16.9 17.8 16.1 95 0.5 NE 6 13 3 7 1012.6 1011.8 0.0
26/05:30am 16.9 18.1 15.9 94 0.6 NE 4 6 2 3 1012.4 1011.6 0.0
26/05:00am 17.0 17.9 16.0 94 0.6 NE 6 11 3 6 1012.7 1011.9 0.0
26/04:30am 16.3 17.4 15.7 96 0.4 ENE 4 9 2 5 1012.8 1012.0 0.0
26/04:00am 16.1 16.2 15.6 97 0.3 NE 9 13 5 7 1013.0 1012.2 0.0
26/03:30am 15.8 16.5 15.5 98 0.2 NE 6 11 3 6 1013.1 1012.3 0.0
26/03:00am 15.6 15.7 15.4 99 0.1 ENE 9 11 5 6 1013.6 1012.8 0.0
26/02:30am 15.5 15.5 15.3 99 0.1 SE 9 11 5 6 1014.5 1013.6 0.0
26/02:00am 15.4 15.8 15.2 99 0.1 E 7 9 4 5 1014.3 1013.4 0.0
26/01:30am 15.4 14.6 15.2 99 0.1 ENE 13 15 7 8 1014.6 1013.7 0.0
26/01:00am 15.6 15.7 15.4 99 0.1 SE 9 13 5 7 1015.1 1014.3 0.0
26/12:30am 15.6 15.7 15.4 99 0.1 ESE 9 13 5 7 1015.2 1014.4 0.0
26/12:00am 15.6 14.9 15.3 98 0.2 E 13 19 7 10 1015.1 1014.3 0.0
 
Date/Time
CDT
Temp
°C
App
Temp
°C
Dew
Point
°C
Rel
Hum
%
Delta-T
°C
Wind Press
QNH
hPa
Press
MSL
hPa
Rain since
9am
mm
Dir  Spd
km/h
Gust
km/h
Spd
kts
Gust
kts
25/11:30pm 15.8 15.1 15.5 98 0.2 ESE 13 19 7 10 1015.5 1014.7 0.0
25/11:00pm 15.9 14.9 15.6 98 0.2 SE 15 19 8 10 1015.6 1014.8 0.0
25/10:30pm 15.9 14.1 15.6 98 0.2 SE 19 24 10 13 1015.5 1014.7 0.0
25/10:00pm 16.0 14.7 15.7 98 0.2 SE 17 20 9 11 1015.5 1014.7 0.0
25/09:30pm 16.2 14.9 15.7 97 0.3 SE 17 20 9 11 1015.5 1014.7 0.0
25/09:00pm 16.1 14.7 15.6 97 0.3 SE 17 22 9 12 1015.2 1014.4 0.0
25/08:30pm 16.2 14.5 15.7 97 0.3 SSE 19 26 10 14 1014.9 1014.1 0.0
25/08:00pm 16.4 15.1 15.9 97 0.3 SE 17 22 9 12 1014.7 1013.8 0.0
25/07:30pm 16.7 15.8 15.9 95 0.5 SSE 15 20 8 11 1014.7 1013.8 0.0
25/07:00pm 16.9 16.7 15.8 93 0.7 SSE 11 17 6 9 1014.8 1013.9 0.0
25/06:30pm 17.1 16.6 15.8 92 0.8 SSE 13 17 7 9 1014.7 1013.8 0.0
25/06:00pm 17.3 15.9 15.6 90 1.0 SSE 17 20 9 11 1014.3 1013.4 0.0
25/05:30pm 17.9 16.9 15.7 87 1.3 SSE 15 19 8 10 1014.2 1013.3 0.0
25/05:00pm 18.6 17.7 15.8 84 1.7 SSE 15 19 8 10 1013.9 1013.1 0.0
25/04:30pm 18.4 17.6 15.1 81 2.0 SSE 13 17 7 9 1014.2 1013.3 0.0
25/04:00pm 19.0 17.9 15.3 79 2.2 SSE 15 19 8 10 1013.9 1013.1 0.0
25/03:30pm 19.6 19.2 16.1 80 2.1 SSE 13 19 7 10 1014.2 1013.3 0.0
25/03:00pm 19.8 19.8 16.3 80 2.1 SE 11 17 6 9 1014.3 1013.4 0.0
25/02:30pm 20.0 19.5 16.0 78 2.4 S 13 17 7 9 1014.7 1013.8 0.0
25/02:00pm 20.2 19.1 16.4 79 2.3 SSE 17 22 9 12 1014.7 1013.8 0.0
25/01:30pm 20.1 19.4 15.5 75 2.8 SSE 13 19 7 10 1015.1 1014.3 0.0
25/01:00pm 19.9 19.2 16.3 80 2.2 SSE 15 20 8 11 1015.2 1014.4 0.0
25/12:30pm 19.3 18.2 15.2 77 2.4 SSE 15 22 8 12 1015.2 1014.4 0.0
25/12:00pm 19.2 18.1 15.3 78 2.3 SE 15 20 8 11 1015.4 1014.6 0.0
25/11:30am 18.9 17.6 15.8 82 1.9 SSE 17 20 9 11 1015.4 1014.6 0.0
25/11:00am 18.5 16.9 16.1 86 1.4 S 19 24 10 13 1015.4 1014.6 0.0
25/10:30am 18.7 16.6 15.2 80 2.1 S 20 24 11 13 1015.1 1014.3 0.0
25/10:00am 18.4 16.0 14.3 77 2.4 S 20 24 11 13 1014.8 1013.9 0.0
25/09:30am 18.5 17.6 15.9 85 1.6 SSE 15 19 8 10 1014.5 1013.6 0.0
25/09:00am 17.8 17.8 16.3 91 0.9 SSE 11 15 6 8 1014.4 1013.5 0.0
25/08:30am 17.9 18.0 16.4 91 0.9 S 11 13 6 7 1014.0 1013.2 0.0
25/08:00am 17.3 17.9 16.7 96 0.4 S 9 11 5 6 1013.6 1012.8 0.0
25/07:30am 16.6 16.9 16.1 97 0.3 S 9 11 5 6 1013.4 1012.6 0.0
25/07:00am 16.5 17.1 15.7 95 0.5 S 7 9 4 5 1012.9 1012.1 0.0
25/06:30am 16.7 17.0 15.1 90 0.9 S 7 9 4 5 1012.7 1011.9 0.0
25/06:00am 18.9 20.4 15.6 81 2.0 NW 2 6 1 3 1012.6 1011.8 0.0
25/05:30am 19.5 20.6 15.6 78 2.3 NW 4 6 2 3 1012.1 1011.2 0.0
25/05:00am 19.9 20.3 15.3 75 2.8 NW 7 9 4 5 1011.9 1011.0 0.0
25/04:30am 20.6 20.1 14.9 70 3.4 NW 11 17 6 9 1011.9 1011.0 0.0
25/04:00am 21.9 21.3 14.5 63 4.4 NNW 11 15 6 8 1011.7 1010.8 0.0
25/03:30am 21.7 21.1 14.6 64 4.2 NW 11 13 6 7 1011.8 1010.9 0.0
25/03:00am 22.1 23.2 14.5 62 4.5 NNW 2 7 1 4 1011.7 1010.8 0.0
25/02:30am 23.4 23.4 14.1 56 5.5 NNW 7 11 4 6 1012.0 1011.1 0.0
25/02:00am 22.3 23.1 14.7 62 4.6 NE 4 6 2 3 1012.5 1011.7 0.0
25/01:30am 22.6 23.3 14.4 60 4.9 NE 4 6 2 3 1012.9 1012.1 0.0
25/01:00am 21.7 23.1 14.4 63 4.3 CALM 0 2 0 1 1013.1 1012.3 0.0
25/12:30am 22.1 22.5 14.7 63 4.4 NE 6 7 3 4 1013.3 1012.5 0.0
25/12:00am 21.4 22.3 15.0 67 3.8 NE 4 6 2 3 1013.3 1012.5 0.0
 
Date/Time
CDT
Temp
°C
App
Temp
°C
Dew
Point
°C
Rel
Hum
%
Delta-T
°C
Wind Press
QNH
hPa
Press
MSL
hPa
Rain since
9am
mm
Dir  Spd
km/h
Gust
km/h
Spd
kts
Gust
kts
24/11:30pm 21.9 21.0 14.8 64 4.3 NE 13 19 7 10 1013.3 1012.5 0.0
24/11:00pm 21.5 20.2 14.9 66 4.0 NE 15 20 8 11 1013.1 1012.3 0.0
24/10:30pm 22.6 21.1 14.2 59 5.0 ENE 15 19 8 10 1013.6 1012.8 0.0
24/10:00pm 22.6 20.8 14.4 60 4.9 E 17 20 9 11 1013.9 1013.1 0.0
24/09:30pm 22.1 21.1 14.7 63 4.4 ESE 13 17 7 9 1014.0 1013.2 0.0
24/09:00pm 22.1 21.6 15.0 64 4.3 SE 11 13 6 7 1014.2 1013.3 0.0
24/08:30pm 22.3 22.2 14.9 63 4.4 SE 9 11 5 6 1014.4 1013.5 0.0
24/08:00pm 22.1 21.6 15.0 64 4.3 ESE 11 15 6 8 1013.7 1012.9 0.0
24/07:30pm 22.4 21.9 14.8 62 4.6 SE 11 15 6 8 1013.8 1013.0 0.0
24/07:00pm 23.0 22.8 14.8 60 4.9 SE 9 13 5 7 1013.9 1013.1 0.0
24/06:30pm 23.7 23.1 14.7 57 5.4 SE 11 15 6 8 1013.8 1013.0 0.0
24/06:00pm 24.7 23.5 15.1 55 5.8 SE 15 19 8 10 1013.4 1012.6 0.0
24/05:30pm 25.6 25.0 15.6 54 6.2 SE 13 17 7 9 1013.3 1012.5 0.0
24/05:00pm 25.9 24.9 15.6 53 6.3 SE 15 19 8 10 1013.6 1012.8 0.0
24/04:30pm 27.4 27.0 13.0 41 8.6 WNW 7 9 4 5 1013.9 1013.1 0.0
24/04:00pm 27.5 27.4 13.4 41 8.4 N 6 13 3 7 1013.7 1012.9 0.0
24/03:30pm 27.7 27.0 14.3 43 8.1 NW 11 17 6 9 1013.8 1013.0 0.0

Other Formats:

Comma delimited format used in spreadsheet applications
http://www.bom.gov.au/fwo/IDS60801/IDS60801.94811.axf

JavaScript Object Notation format (JSON) in row-major order
http://www.bom.gov.au/fwo/IDS60801/IDS60801.94811.json